sensor_id;sensor_type;location;lat;lon;timestamp;temperature;humidity
15262;DHT22;7733;51.554;13.590;2024-01-15T00:02:09;1.80;99.90
15262;DHT22;7733;51.554;13.590;2024-01-15T00:04:40;1.80;99.90
15262;DHT22;7733;51.554;13.590;2024-01-15T00:07:07;1.90;99.90
15262;DHT22;7733;51.554;13.590;2024-01-15T00:09:34;1.90;99.90
15262;DHT22;7733;51.554;13.590;2024-01-15T00:12:00;1.90;99.90
15262;DHT22;7733;51.554;13.590;2024-01-15T00:14:27;1.90;99.90
15262;DHT22;7733;51.554;13.590;2024-01-15T00:16:53;1.90;99.90
15262;DHT22;7733;51.554;13.590;2024-01-15T00:19:21;1.90;99.90
15262;DHT22;7733;51.554;13.590;2024-01-15T00:21:47;2.00;99.90
15262;DHT22;7733;51.554;13.590;2024-01-15T00:24:13;2.00;99.90
15262;DHT22;7733;51.554;13.590;2024-01-15T00:26:40;1.90;99.90
15262;DHT22;7733;51.554;13.590;2024-01-15T00:29:09;1.90;99.90
15262;DHT22;7733;51.554;13.590;2024-01-15T00:31:35;1.90;99.90
15262;DHT22;7733;51.554;13.590;2024-01-15T00:34:01;2.00;99.90
15262;DHT22;7733;51.554;13.590;2024-01-15T00:36:27;1.90;99.90
15262;DHT22;7733;51.554;13.590;2024-01-15T00:38:53;2.00;99.90
15262;DHT22;7733;51.554;13.590;2024-01-15T00:41:19;2.00;99.90
15262;DHT22;7733;51.554;13.590;2024-01-15T00:43:46;2.00;99.90
15262;DHT22;7733;51.554;13.590;2024-01-15T00:46:12;2.00;99.90
15262;DHT22;7733;51.554;13.590;2024-01-15T00:48:37;1.90;99.90
15262;DHT22;7733;51.554;13.590;2024-01-15T00:51:06;2.00;99.90
15262;DHT22;7733;51.554;13.590;2024-01-15T00:53:32;1.90;99.90
15262;DHT22;7733;51.554;13.590;2024-01-15T00:55:58;2.00;99.90
15262;DHT22;7733;51.554;13.590;2024-01-15T00:58:23;1.90;99.90
15262;DHT22;7733;51.554;13.590;2024-01-15T01:00:49;1.90;99.90
15262;DHT22;7733;51.554;13.590;2024-01-15T01:03:15;1.90;99.90
15262;DHT22;7733;51.554;13.590;2024-01-15T01:05:41;1.90;99.90
15262;DHT22;7733;51.554;13.590;2024-01-15T01:08:06;1.90;99.90
15262;DHT22;7733;51.554;13.590;2024-01-15T01:10:32;1.90;99.90
15262;DHT22;7733;51.554;13.590;2024-01-15T01:12:58;1.90;99.90
15262;DHT22;7733;51.554;13.590;2024-01-15T01:15:23;1.90;99.90
15262;DHT22;7733;51.554;13.590;2024-01-15T01:17:50;1.90;99.90
15262;DHT22;7733;51.554;13.590;2024-01-15T01:20:16;1.80;99.90
15262;DHT22;7733;51.554;13.590;2024-01-15T01:22:41;1.90;99.90
15262;DHT22;7733;51.554;13.590;2024-01-15T01:25:07;1.90;99.90
15262;DHT22;7733;51.554;13.590;2024-01-15T01:27:35;1.90;99.90
15262;DHT22;7733;51.554;13.590;2024-01-15T01:30:01;1.90;99.90
15262;DHT22;7733;51.554;13.590;2024-01-15T01:32:27;1.90;99.90
15262;DHT22;7733;51.554;13.590;2024-01-15T01:34:52;2.00;99.90
15262;DHT22;7733;51.554;13.590;2024-01-15T01:37:18;1.90;99.90
15262;DHT22;7733;51.554;13.590;2024-01-15T01:39:44;1.90;99.90
15262;DHT22;7733;51.554;13.590;2024-01-15T01:42:11;1.90;99.90
15262;DHT22;7733;51.554;13.590;2024-01-15T01:44:37;2.00;99.90
15262;DHT22;7733;51.554;13.590;2024-01-15T01:47:04;1.90;99.90
15262;DHT22;7733;51.554;13.590;2024-01-15T01:49:30;1.90;99.90
15262;DHT22;7733;51.554;13.590;2024-01-15T01:51:58;1.90;99.90
15262;DHT22;7733;51.554;13.590;2024-01-15T01:54:29;1.90;99.90
15262;DHT22;7733;51.554;13.590;2024-01-15T01:56:57;1.90;99.90
15262;DHT22;7733;51.554;13.590;2024-01-15T01:59:28;1.90;99.90
15262;DHT22;7733;51.554;13.590;2024-01-15T02:01:54;1.90;99.90
15262;DHT22;7733;51.554;13.590;2024-01-15T02:04:23;1.90;99.90
15262;DHT22;7733;51.554;13.590;2024-01-15T02:06:50;1.90;99.90
15262;DHT22;7733;51.554;13.590;2024-01-15T02:09:17;1.90;99.90
15262;DHT22;7733;51.554;13.590;2024-01-15T02:11:46;1.90;99.90
15262;DHT22;7733;51.554;13.590;2024-01-15T02:14:12;1.90;99.90
15262;DHT22;7733;51.554;13.590;2024-01-15T02:16:39;1.90;99.90
15262;DHT22;7733;51.554;13.590;2024-01-15T02:19:04;1.90;99.90
15262;DHT22;7733;51.554;13.590;2024-01-15T02:21:31;1.90;99.90
15262;DHT22;7733;51.554;13.590;2024-01-15T02:23:58;1.90;99.90
15262;DHT22;7733;51.554;13.590;2024-01-15T02:26:24;1.90;99.90
15262;DHT22;7733;51.554;13.590;2024-01-15T02:28:50;1.90;99.90
15262;DHT22;7733;51.554;13.590;2024-01-15T02:31:16;1.90;99.90
15262;DHT22;7733;51.554;13.590;2024-01-15T02:33:43;1.90;99.90
15262;DHT22;7733;51.554;13.590;2024-01-15T02:36:11;1.90;99.90
15262;DHT22;7733;51.554;13.590;2024-01-15T02:38:37;1.80;99.90
15262;DHT22;7733;51.554;13.590;2024-01-15T02:41:03;1.80;99.90
15262;DHT22;7733;51.554;13.590;2024-01-15T02:43:29;1.90;99.90
15262;DHT22;7733;51.554;13.590;2024-01-15T02:45:55;1.90;99.90
15262;DHT22;7733;51.554;13.590;2024-01-15T02:48:21;1.90;99.90
15262;DHT22;7733;51.554;13.590;2024-01-15T02:50:46;1.90;99.90
15262;DHT22;7733;51.554;13.590;2024-01-15T02:53:12;1.90;99.90
15262;DHT22;7733;51.554;13.590;2024-01-15T02:55:38;1.90;99.90
15262;DHT22;7733;51.554;13.590;2024-01-15T02:58:04;1.90;99.90
15262;DHT22;7733;51.554;13.590;2024-01-15T03:00:29;1.80;99.90
15262;DHT22;7733;51.554;13.590;2024-01-15T03:02:56;1.80;99.90
15262;DHT22;7733;51.554;13.590;2024-01-15T03:05:22;1.80;99.90
15262;DHT22;7733;51.554;13.590;2024-01-15T03:07:47;1.90;99.90
15262;DHT22;7733;51.554;13.590;2024-01-15T03:10:13;1.90;99.90
15262;DHT22;7733;51.554;13.590;2024-01-15T03:12:39;1.90;99.90
15262;DHT22;7733;51.554;13.590;2024-01-15T03:15:05;1.90;99.90
15262;DHT22;7733;51.554;13.590;2024-01-15T03:17:31;1.90;99.90
15262;DHT22;7733;51.554;13.590;2024-01-15T03:19:57;1.90;99.90
15262;DHT22;7733;51.554;13.590;2024-01-15T03:22:22;1.90;99.90
15262;DHT22;7733;51.554;13.590;2024-01-15T03:24:48;1.90;99.90
15262;DHT22;7733;51.554;13.590;2024-01-15T03:27:14;1.80;99.90
15262;DHT22;7733;51.554;13.590;2024-01-15T03:29:40;1.80;99.90
15262;DHT22;7733;51.554;13.590;2024-01-15T03:32:06;1.80;99.90
15262;DHT22;7733;51.554;13.590;2024-01-15T03:34:32;1.80;99.90
15262;DHT22;7733;51.554;13.590;2024-01-15T03:36:58;1.80;99.90
15262;DHT22;7733;51.554;13.590;2024-01-15T03:39:24;1.80;99.90
15262;DHT22;7733;51.554;13.590;2024-01-15T03:41:51;1.80;99.90
15262;DHT22;7733;51.554;13.590;2024-01-15T03:44:16;1.80;99.90
15262;DHT22;7733;51.554;13.590;2024-01-15T03:46:42;1.70;99.90
15262;DHT22;7733;51.554;13.590;2024-01-15T03:49:08;1.70;99.90
15262;DHT22;7733;51.554;13.590;2024-01-15T03:51:33;1.70;99.90
15262;DHT22;7733;51.554;13.590;2024-01-15T03:53:59;1.60;99.90
15262;DHT22;7733;51.554;13.590;2024-01-15T03:56:25;1.60;99.90
15262;DHT22;7733;51.554;13.590;2024-01-15T03:58:51;1.60;99.90
15262;DHT22;7733;51.554;13.590;2024-01-15T04:01:16;1.60;99.90
15262;DHT22;7733;51.554;13.590;2024-01-15T04:03:42;1.60;99.90
15262;DHT22;7733;51.554;13.590;2024-01-15T04:06:08;1.60;99.90
15262;DHT22;7733;51.554;13.590;2024-01-15T04:08:33;1.60;99.90
15262;DHT22;7733;51.554;13.590;2024-01-15T04:10:59;1.60;99.90
15262;DHT22;7733;51.554;13.590;2024-01-15T04:13:27;1.60;99.90
15262;DHT22;7733;51.554;13.590;2024-01-15T04:15:53;1.60;99.90
15262;DHT22;7733;51.554;13.590;2024-01-15T04:18:19;1.60;99.90
15262;DHT22;7733;51.554;13.590;2024-01-15T04:20:44;1.60;99.90
15262;DHT22;7733;51.554;13.590;2024-01-15T04:23:10;1.60;99.90
15262;DHT22;7733;51.554;13.590;2024-01-15T04:25:36;1.60;99.90
15262;DHT22;7733;51.554;13.590;2024-01-15T04:28:01;1.60;99.90
15262;DHT22;7733;51.554;13.590;2024-01-15T04:30:27;1.60;99.90
15262;DHT22;7733;51.554;13.590;2024-01-15T04:32:53;1.60;99.90
15262;DHT22;7733;51.554;13.590;2024-01-15T04:35:19;1.60;99.90
15262;DHT22;7733;51.554;13.590;2024-01-15T04:37:44;1.60;99.90
15262;DHT22;7733;51.554;13.590;2024-01-15T04:40:10;1.60;99.90
15262;DHT22;7733;51.554;13.590;2024-01-15T04:42:36;1.60;99.90
15262;DHT22;7733;51.554;13.590;2024-01-15T04:45:02;1.60;99.90
15262;DHT22;7733;51.554;13.590;2024-01-15T04:47:29;1.60;99.90
15262;DHT22;7733;51.554;13.590;2024-01-15T04:49:54;1.60;99.90
15262;DHT22;7733;51.554;13.590;2024-01-15T04:52:20;1.70;99.90
15262;DHT22;7733;51.554;13.590;2024-01-15T04:54:46;1.60;99.90
15262;DHT22;7733;51.554;13.590;2024-01-15T04:57:12;1.60;99.90
15262;DHT22;7733;51.554;13.590;2024-01-15T04:59:37;1.60;99.90
15262;DHT22;7733;51.554;13.590;2024-01-15T05:02:03;1.60;99.90
15262;DHT22;7733;51.554;13.590;2024-01-15T05:04:29;1.60;99.90
15262;DHT22;7733;51.554;13.590;2024-01-15T05:06:55;1.60;99.90
15262;DHT22;7733;51.554;13.590;2024-01-15T05:09:21;1.60;99.90
15262;DHT22;7733;51.554;13.590;2024-01-15T05:11:46;1.70;99.90
15262;DHT22;7733;51.554;13.590;2024-01-15T05:14:12;1.70;99.90
15262;DHT22;7733;51.554;13.590;2024-01-15T05:16:39;1.60;99.90
15262;DHT22;7733;51.554;13.590;2024-01-15T05:19:07;1.60;99.90
15262;DHT22;7733;51.554;13.590;2024-01-15T05:21:33;1.50;99.90
15262;DHT22;7733;51.554;13.590;2024-01-15T05:23:59;1.50;99.90
15262;DHT22;7733;51.554;13.590;2024-01-15T05:26:24;1.50;99.90
15262;DHT22;7733;51.554;13.590;2024-01-15T05:28:50;1.60;99.90
15262;DHT22;7733;51.554;13.590;2024-01-15T05:31:16;1.50;99.90
15262;DHT22;7733;51.554;13.590;2024-01-15T05:33:41;1.50;99.90
15262;DHT22;7733;51.554;13.590;2024-01-15T05:36:07;1.50;99.90
15262;DHT22;7733;51.554;13.590;2024-01-15T05:38:33;1.50;99.90
15262;DHT22;7733;51.554;13.590;2024-01-15T05:40:59;1.60;99.90
15262;DHT22;7733;51.554;13.590;2024-01-15T05:43:24;1.60;99.90
15262;DHT22;7733;51.554;13.590;2024-01-15T05:45:50;1.60;99.90
15262;DHT22;7733;51.554;13.590;2024-01-15T05:48:16;1.60;99.90
15262;DHT22;7733;51.554;13.590;2024-01-15T05:50:41;1.60;99.90
15262;DHT22;7733;51.554;13.590;2024-01-15T05:53:07;1.60;99.90
15262;DHT22;7733;51.554;13.590;2024-01-15T05:55:34;1.60;99.90
15262;DHT22;7733;51.554;13.590;2024-01-15T05:58:01;1.60;99.90
15262;DHT22;7733;51.554;13.590;2024-01-15T06:00:27;1.60;99.90
15262;DHT22;7733;51.554;13.590;2024-01-15T06:02:53;1.60;99.90
15262;DHT22;7733;51.554;13.590;2024-01-15T06:05:18;1.60;99.90
15262;DHT22;7733;51.554;13.590;2024-01-15T06:07:44;1.60;99.90
15262;DHT22;7733;51.554;13.590;2024-01-15T06:10:10;1.60;99.90
15262;DHT22;7733;51.554;13.590;2024-01-15T06:12:35;1.60;99.90
15262;DHT22;7733;51.554;13.590;2024-01-15T06:15:01;1.60;99.90
15262;DHT22;7733;51.554;13.590;2024-01-15T06:17:27;1.60;99.90
15262;DHT22;7733;51.554;13.590;2024-01-15T06:19:53;1.60;99.90
15262;DHT22;7733;51.554;13.590;2024-01-15T06:22:19;1.60;99.90
15262;DHT22;7733;51.554;13.590;2024-01-15T06:24:44;1.60;99.90
15262;DHT22;7733;51.554;13.590;2024-01-15T06:27:10;1.60;99.90
15262;DHT22;7733;51.554;13.590;2024-01-15T06:29:37;1.60;99.90
15262;DHT22;7733;51.554;13.590;2024-01-15T06:32:04;1.60;99.90
15262;DHT22;7733;51.554;13.590;2024-01-15T06:34:30;1.60;99.90
15262;DHT22;7733;51.554;13.590;2024-01-15T06:36:56;1.60;99.90
15262;DHT22;7733;51.554;13.590;2024-01-15T06:39:21;1.60;99.90
15262;DHT22;7733;51.554;13.590;2024-01-15T06:41:47;1.60;99.90
15262;DHT22;7733;51.554;13.590;2024-01-15T06:44:13;1.70;99.90
15262;DHT22;7733;51.554;13.590;2024-01-15T06:46:42;1.70;99.90
15262;DHT22;7733;51.554;13.590;2024-01-15T06:49:09;1.70;99.90
15262;DHT22;7733;51.554;13.590;2024-01-15T06:51:35;1.70;99.90
15262;DHT22;7733;51.554;13.590;2024-01-15T06:54:01;1.70;99.90
15262;DHT22;7733;51.554;13.590;2024-01-15T06:56:28;1.70;99.90
15262;DHT22;7733;51.554;13.590;2024-01-15T06:58:54;1.70;99.90
15262;DHT22;7733;51.554;13.590;2024-01-15T07:01:19;1.70;99.90
15262;DHT22;7733;51.554;13.590;2024-01-15T07:03:45;1.70;99.90
15262;DHT22;7733;51.554;13.590;2024-01-15T07:06:11;1.70;99.90
15262;DHT22;7733;51.554;13.590;2024-01-15T07:08:39;1.70;99.90
15262;DHT22;7733;51.554;13.590;2024-01-15T07:11:06;1.70;99.90
15262;DHT22;7733;51.554;13.590;2024-01-15T07:13:32;1.70;99.90
15262;DHT22;7733;51.554;13.590;2024-01-15T07:15:58;1.70;99.90
15262;DHT22;7733;51.554;13.590;2024-01-15T07:18:24;1.70;99.90
15262;DHT22;7733;51.554;13.590;2024-01-15T07:20:50;1.70;99.90
15262;DHT22;7733;51.554;13.590;2024-01-15T07:23:16;1.70;99.90
15262;DHT22;7733;51.554;13.590;2024-01-15T07:25:42;1.70;99.90
15262;DHT22;7733;51.554;13.590;2024-01-15T07:28:08;1.70;99.90
15262;DHT22;7733;51.554;13.590;2024-01-15T07:30:35;1.70;99.90
15262;DHT22;7733;51.554;13.590;2024-01-15T07:33:00;1.60;99.90
15262;DHT22;7733;51.554;13.590;2024-01-15T07:35:26;1.70;99.90
15262;DHT22;7733;51.554;13.590;2024-01-15T07:37:52;1.80;99.90
15262;DHT22;7733;51.554;13.590;2024-01-15T07:40:18;1.80;99.90
15262;DHT22;7733;51.554;13.590;2024-01-15T07:42:43;1.80;99.90
15262;DHT22;7733;51.554;13.590;2024-01-15T07:45:10;1.80;99.90
15262;DHT22;7733;51.554;13.590;2024-01-15T07:47:36;1.80;99.90
15262;DHT22;7733;51.554;13.590;2024-01-15T07:50:03;1.80;99.90
15262;DHT22;7733;51.554;13.590;2024-01-15T07:52:30;1.80;99.90
15262;DHT22;7733;51.554;13.590;2024-01-15T07:54:56;1.80;99.90
15262;DHT22;7733;51.554;13.590;2024-01-15T07:57:22;1.80;99.90
15262;DHT22;7733;51.554;13.590;2024-01-15T07:59:48;1.80;99.90
15262;DHT22;7733;51.554;13.590;2024-01-15T08:02:14;1.80;99.90
15262;DHT22;7733;51.554;13.590;2024-01-15T08:04:39;1.80;99.90
15262;DHT22;7733;51.554;13.590;2024-01-15T08:07:05;1.80;99.90
15262;DHT22;7733;51.554;13.590;2024-01-15T08:09:33;1.80;99.90
15262;DHT22;7733;51.554;13.590;2024-01-15T08:11:59;1.90;99.90
15262;DHT22;7733;51.554;13.590;2024-01-15T08:14:25;1.90;99.90
15262;DHT22;7733;51.554;13.590;2024-01-15T08:16:51;1.80;99.90
15262;DHT22;7733;51.554;13.590;2024-01-15T08:19:16;1.80;99.90
15262;DHT22;7733;51.554;13.590;2024-01-15T08:21:42;1.80;99.90
15262;DHT22;7733;51.554;13.590;2024-01-15T08:24:08;1.80;99.90
15262;DHT22;7733;51.554;13.590;2024-01-15T08:26:34;1.90;99.90
15262;DHT22;7733;51.554;13.590;2024-01-15T08:29:00;1.90;99.90
15262;DHT22;7733;51.554;13.590;2024-01-15T08:31:25;1.90;99.90
15262;DHT22;7733;51.554;13.590;2024-01-15T08:33:52;1.90;99.90
15262;DHT22;7733;51.554;13.590;2024-01-15T08:36:18;1.90;99.90
15262;DHT22;7733;51.554;13.590;2024-01-15T08:38:44;1.90;99.90
15262;DHT22;7733;51.554;13.590;2024-01-15T08:41:10;1.90;99.90
15262;DHT22;7733;51.554;13.590;2024-01-15T08:43:36;1.90;99.90
15262;DHT22;7733;51.554;13.590;2024-01-15T08:46:02;1.90;99.90
15262;DHT22;7733;51.554;13.590;2024-01-15T08:48:29;1.90;99.90
15262;DHT22;7733;51.554;13.590;2024-01-15T08:50:55;2.00;99.90
15262;DHT22;7733;51.554;13.590;2024-01-15T08:53:21;2.00;99.90
15262;DHT22;7733;51.554;13.590;2024-01-15T08:55:47;2.00;99.90
15262;DHT22;7733;51.554;13.590;2024-01-15T08:58:13;2.10;99.90
15262;DHT22;7733;51.554;13.590;2024-01-15T09:00:39;2.10;99.90
15262;DHT22;7733;51.554;13.590;2024-01-15T09:03:05;2.20;99.90
15262;DHT22;7733;51.554;13.590;2024-01-15T09:05:31;2.10;99.90
15262;DHT22;7733;51.554;13.590;2024-01-15T09:07:57;2.20;99.90
15262;DHT22;7733;51.554;13.590;2024-01-15T09:10:23;2.20;99.90
15262;DHT22;7733;51.554;13.590;2024-01-15T09:12:49;2.20;99.90
15262;DHT22;7733;51.554;13.590;2024-01-15T09:15:15;2.10;99.90
15262;DHT22;7733;51.554;13.590;2024-01-15T09:17:41;2.20;99.90
15262;DHT22;7733;51.554;13.590;2024-01-15T09:20:08;2.10;99.90
15262;DHT22;7733;51.554;13.590;2024-01-15T09:22:37;2.10;99.90
15262;DHT22;7733;51.554;13.590;2024-01-15T09:25:06;2.10;99.90
15262;DHT22;7733;51.554;13.590;2024-01-15T09:27:32;2.20;99.90
15262;DHT22;7733;51.554;13.590;2024-01-15T09:29:58;2.20;99.90
15262;DHT22;7733;51.554;13.590;2024-01-15T09:32:23;2.20;99.90
15262;DHT22;7733;51.554;13.590;2024-01-15T09:34:49;2.20;99.90
15262;DHT22;7733;51.554;13.590;2024-01-15T09:37:15;2.30;99.90
15262;DHT22;7733;51.554;13.590;2024-01-15T09:39:41;2.20;99.90
15262;DHT22;7733;51.554;13.590;2024-01-15T09:42:08;2.20;99.90
15262;DHT22;7733;51.554;13.590;2024-01-15T09:44:36;2.20;99.90
15262;DHT22;7733;51.554;13.590;2024-01-15T09:47:04;2.20;99.90
15262;DHT22;7733;51.554;13.590;2024-01-15T09:49:31;2.20;99.90
15262;DHT22;7733;51.554;13.590;2024-01-15T09:51:57;2.20;99.90
15262;DHT22;7733;51.554;13.590;2024-01-15T09:54:23;2.20;99.90
15262;DHT22;7733;51.554;13.590;2024-01-15T09:56:49;2.20;99.90
15262;DHT22;7733;51.554;13.590;2024-01-15T09:59:19;2.30;99.90
15262;DHT22;7733;51.554;13.590;2024-01-15T10:01:45;2.30;99.90
15262;DHT22;7733;51.554;13.590;2024-01-15T10:04:14;2.30;99.90
15262;DHT22;7733;51.554;13.590;2024-01-15T10:06:46;2.20;99.90
15262;DHT22;7733;51.554;13.590;2024-01-15T10:09:13;2.30;99.90
15262;DHT22;7733;51.554;13.590;2024-01-15T10:11:42;2.20;99.90
15262;DHT22;7733;51.554;13.590;2024-01-15T10:14:09;2.20;99.90
15262;DHT22;7733;51.554;13.590;2024-01-15T10:16:42;2.30;99.90
15262;DHT22;7733;51.554;13.590;2024-01-15T10:19:09;2.30;99.90
15262;DHT22;7733;51.554;13.590;2024-01-15T10:21:36;2.30;99.90
15262;DHT22;7733;51.554;13.590;2024-01-15T10:24:03;2.30;99.90
15262;DHT22;7733;51.554;13.590;2024-01-15T10:26:30;2.30;99.90
15262;DHT22;7733;51.554;13.590;2024-01-15T10:28:58;2.30;99.90
15262;DHT22;7733;51.554;13.590;2024-01-15T10:31:25;2.50;99.90
15262;DHT22;7733;51.554;13.590;2024-01-15T10:33:51;2.50;99.90
15262;DHT22;7733;51.554;13.590;2024-01-15T10:36:17;2.50;99.90
15262;DHT22;7733;51.554;13.590;2024-01-15T10:38:44;2.50;99.90
15262;DHT22;7733;51.554;13.590;2024-01-15T10:41:10;2.50;99.90
15262;DHT22;7733;51.554;13.590;2024-01-15T10:43:37;2.60;99.90
15262;DHT22;7733;51.554;13.590;2024-01-15T10:46:03;2.60;99.90
15262;DHT22;7733;51.554;13.590;2024-01-15T10:48:30;2.60;99.90
15262;DHT22;7733;51.554;13.590;2024-01-15T10:50:59;2.60;99.90
15262;DHT22;7733;51.554;13.590;2024-01-15T10:53:26;2.60;99.90
15262;DHT22;7733;51.554;13.590;2024-01-15T10:55:53;2.60;99.90
15262;DHT22;7733;51.554;13.590;2024-01-15T10:58:20;2.60;99.90
15262;DHT22;7733;51.554;13.590;2024-01-15T11:00:48;2.70;99.90
15262;DHT22;7733;51.554;13.590;2024-01-15T11:03:15;2.70;99.90
15262;DHT22;7733;51.554;13.590;2024-01-15T11:05:43;2.70;99.90
15262;DHT22;7733;51.554;13.590;2024-01-15T11:08:10;2.60;99.90
15262;DHT22;7733;51.554;13.590;2024-01-15T11:10:52;2.70;99.90
15262;DHT22;7733;51.554;13.590;2024-01-15T11:13:22;2.70;99.90
15262;DHT22;7733;51.554;13.590;2024-01-15T11:16:10;2.70;99.90
15262;DHT22;7733;51.554;13.590;2024-01-15T11:18:42;2.80;99.90
15262;DHT22;7733;51.554;13.590;2024-01-15T11:23:58;2.80;99.90
15262;DHT22;7733;51.554;13.590;2024-01-15T11:34:21;2.80;99.90
15262;DHT22;7733;51.554;13.590;2024-01-15T11:37:23;2.80;99.90
15262;DHT22;7733;51.554;13.590;2024-01-15T11:40:03;2.80;99.90
15262;DHT22;7733;51.554;13.590;2024-01-15T11:42:29;2.80;99.90
15262;DHT22;7733;51.554;13.590;2024-01-15T11:44:55;2.80;99.90
15262;DHT22;7733;51.554;13.590;2024-01-15T11:50:46;2.80;99.90
15262;DHT22;7733;51.554;13.590;2024-01-15T11:53:40;2.80;99.90
15262;DHT22;7733;51.554;13.590;2024-01-15T11:56:15;2.80;99.90
15262;DHT22;7733;51.554;13.590;2024-01-15T11:58:42;2.80;99.90
15262;DHT22;7733;51.554;13.590;2024-01-15T12:01:10;2.80;99.90
15262;DHT22;7733;51.554;13.590;2024-01-15T12:03:36;2.80;99.90
15262;DHT22;7733;51.554;13.590;2024-01-15T12:06:02;2.80;99.90
15262;DHT22;7733;51.554;13.590;2024-01-15T12:08:31;2.80;99.90
15262;DHT22;7733;51.554;13.590;2024-01-15T12:10:56;2.80;99.90
15262;DHT22;7733;51.554;13.590;2024-01-15T12:13:22;2.80;99.90
15262;DHT22;7733;51.554;13.590;2024-01-15T12:15:49;2.80;99.90
15262;DHT22;7733;51.554;13.590;2024-01-15T12:18:16;2.70;99.90
15262;DHT22;7733;51.554;13.590;2024-01-15T12:20:45;2.80;99.90
15262;DHT22;7733;51.554;13.590;2024-01-15T12:23:14;2.70;99.90
15262;DHT22;7733;51.554;13.590;2024-01-15T12:25:41;2.70;99.90
15262;DHT22;7733;51.554;13.590;2024-01-15T12:28:07;2.70;99.90
15262;DHT22;7733;51.554;13.590;2024-01-15T12:30:34;2.70;99.90
15262;DHT22;7733;51.554;13.590;2024-01-15T12:33:04;2.70;99.90
15262;DHT22;7733;51.554;13.590;2024-01-15T12:35:31;2.70;99.90
15262;DHT22;7733;51.554;13.590;2024-01-15T12:37:57;2.70;99.90
15262;DHT22;7733;51.554;13.590;2024-01-15T12:40:23;2.70;99.90
15262;DHT22;7733;51.554;13.590;2024-01-15T12:42:49;2.40;99.90
15262;DHT22;7733;51.554;13.590;2024-01-15T12:45:15;2.10;99.90
15262;DHT22;7733;51.554;13.590;2024-01-15T12:47:41;1.90;99.90
15262;DHT22;7733;51.554;13.590;2024-01-15T12:50:09;1.90;99.90
15262;DHT22;7733;51.554;13.590;2024-01-15T12:52:36;1.90;99.90
15262;DHT22;7733;51.554;13.590;2024-01-15T12:55:05;1.90;99.90
15262;DHT22;7733;51.554;13.590;2024-01-15T12:57:32;1.90;99.90
15262;DHT22;7733;51.554;13.590;2024-01-15T12:59:59;1.80;99.90
15262;DHT22;7733;51.554;13.590;2024-01-15T13:02:25;1.80;99.90
15262;DHT22;7733;51.554;13.590;2024-01-15T13:04:51;1.90;99.90
15262;DHT22;7733;51.554;13.590;2024-01-15T13:07:17;1.90;99.90
15262;DHT22;7733;51.554;13.590;2024-01-15T13:09:43;1.90;99.90
15262;DHT22;7733;51.554;13.590;2024-01-15T13:12:09;1.90;99.90
15262;DHT22;7733;51.554;13.590;2024-01-15T13:14:34;2.00;99.90
15262;DHT22;7733;51.554;13.590;2024-01-15T13:17:01;2.10;99.90
15262;DHT22;7733;51.554;13.590;2024-01-15T13:19:28;2.20;99.90
15262;DHT22;7733;51.554;13.590;2024-01-15T13:21:54;2.30;99.90
15262;DHT22;7733;51.554;13.590;2024-01-15T13:24:22;2.40;99.90
15262;DHT22;7733;51.554;13.590;2024-01-15T13:26:48;2.40;99.90
15262;DHT22;7733;51.554;13.590;2024-01-15T13:29:13;2.50;99.90
15262;DHT22;7733;51.554;13.590;2024-01-15T13:31:40;2.50;99.90
15262;DHT22;7733;51.554;13.590;2024-01-15T13:34:06;2.60;99.90
15262;DHT22;7733;51.554;13.590;2024-01-15T13:36:32;2.60;99.90
15262;DHT22;7733;51.554;13.590;2024-01-15T13:38:58;2.60;99.90
15262;DHT22;7733;51.554;13.590;2024-01-15T13:41:24;2.60;99.90
15262;DHT22;7733;51.554;13.590;2024-01-15T13:43:53;2.60;99.90
15262;DHT22;7733;51.554;13.590;2024-01-15T13:46:25;2.60;99.90
15262;DHT22;7733;51.554;13.590;2024-01-15T13:48:55;2.60;99.90
15262;DHT22;7733;51.554;13.590;2024-01-15T13:51:24;2.50;99.90
15262;DHT22;7733;51.554;13.590;2024-01-15T13:53:50;2.30;99.90
15262;DHT22;7733;51.554;13.590;2024-01-15T13:56:16;2.10;99.90
15262;DHT22;7733;51.554;13.590;2024-01-15T13:58:42;2.00;99.90
15262;DHT22;7733;51.554;13.590;2024-01-15T14:01:09;2.10;99.90
15262;DHT22;7733;51.554;13.590;2024-01-15T14:03:35;2.20;99.90
15262;DHT22;7733;51.554;13.590;2024-01-15T14:06:01;2.30;99.90
15262;DHT22;7733;51.554;13.590;2024-01-15T14:08:34;2.30;99.90
15262;DHT22;7733;51.554;13.590;2024-01-15T14:11:02;2.30;99.90
15262;DHT22;7733;51.554;13.590;2024-01-15T14:13:31;2.20;99.90
15262;DHT22;7733;51.554;13.590;2024-01-15T14:15:57;2.20;99.90
15262;DHT22;7733;51.554;13.590;2024-01-15T14:18:23;2.00;99.90
15262;DHT22;7733;51.554;13.590;2024-01-15T14:20:48;1.80;99.90
15262;DHT22;7733;51.554;13.590;2024-01-15T14:23:14;1.80;99.90
15262;DHT22;7733;51.554;13.590;2024-01-15T14:25:40;1.80;99.90
15262;DHT22;7733;51.554;13.590;2024-01-15T14:28:06;1.90;99.90
15262;DHT22;7733;51.554;13.590;2024-01-15T14:30:32;2.00;99.90
15262;DHT22;7733;51.554;13.590;2024-01-15T14:32:58;2.10;99.90
15262;DHT22;7733;51.554;13.590;2024-01-15T14:35:23;2.20;99.90
15262;DHT22;7733;51.554;13.590;2024-01-15T14:37:49;2.20;99.90
15262;DHT22;7733;51.554;13.590;2024-01-15T14:40:15;2.20;99.90
15262;DHT22;7733;51.554;13.590;2024-01-15T14:42:41;2.10;99.90
15262;DHT22;7733;51.554;13.590;2024-01-15T14:45:07;2.10;99.90
15262;DHT22;7733;51.554;13.590;2024-01-15T14:47:40;2.10;99.90
15262;DHT22;7733;51.554;13.590;2024-01-15T14:50:07;2.00;99.90
15262;DHT22;7733;51.554;13.590;2024-01-15T14:52:33;2.00;99.90
15262;DHT22;7733;51.554;13.590;2024-01-15T14:55:00;2.00;99.90
15262;DHT22;7733;51.554;13.590;2024-01-15T14:57:26;2.00;99.90
15262;DHT22;7733;51.554;13.590;2024-01-15T14:59:52;2.00;99.90
15262;DHT22;7733;51.554;13.590;2024-01-15T15:02:18;2.00;99.90
15262;DHT22;7733;51.554;13.590;2024-01-15T15:04:45;2.00;99.90
15262;DHT22;7733;51.554;13.590;2024-01-15T15:07:10;2.00;99.90
15262;DHT22;7733;51.554;13.590;2024-01-15T15:09:36;2.00;99.90
15262;DHT22;7733;51.554;13.590;2024-01-15T15:12:06;2.00;99.90
15262;DHT22;7733;51.554;13.590;2024-01-15T15:14:32;1.90;99.90
15262;DHT22;7733;51.554;13.590;2024-01-15T15:17:06;2.00;99.90
15262;DHT22;7733;51.554;13.590;2024-01-15T15:19:32;1.90;99.90
15262;DHT22;7733;51.554;13.590;2024-01-15T15:21:59;1.90;99.90
15262;DHT22;7733;51.554;13.590;2024-01-15T15:24:25;2.00;99.90
15262;DHT22;7733;51.554;13.590;2024-01-15T15:26:51;2.00;99.90
15262;DHT22;7733;51.554;13.590;2024-01-15T15:29:17;2.00;99.90
15262;DHT22;7733;51.554;13.590;2024-01-15T15:31:43;2.00;99.90
15262;DHT22;7733;51.554;13.590;2024-01-15T15:34:09;2.00;99.90
15262;DHT22;7733;51.554;13.590;2024-01-15T15:36:35;2.10;99.90
15262;DHT22;7733;51.554;13.590;2024-01-15T15:39:01;2.10;99.90
15262;DHT22;7733;51.554;13.590;2024-01-15T15:41:26;2.00;99.90
15262;DHT22;7733;51.554;13.590;2024-01-15T15:43:53;2.00;99.90
15262;DHT22;7733;51.554;13.590;2024-01-15T15:46:20;1.90;99.90
15262;DHT22;7733;51.554;13.590;2024-01-15T15:48:46;1.90;99.90
15262;DHT22;7733;51.554;13.590;2024-01-15T15:51:11;1.90;99.90
15262;DHT22;7733;51.554;13.590;2024-01-15T15:53:37;1.90;99.90
15262;DHT22;7733;51.554;13.590;2024-01-15T15:56:03;1.80;99.90